createdAt,value
2022-10-07T00:00:00.016Z,5.10
2022-10-07T00:02:05.676Z,4.97
2022-10-07T00:04:10.404Z,4.35
2022-10-07T00:06:18.043Z,5.15
2022-10-07T00:08:22.714Z,4.10
2022-10-07T00:10:27.697Z,4.88
2022-10-07T00:12:33.571Z,5.00
2022-10-07T00:14:42.538Z,5.18
2022-10-07T00:16:47.294Z,4.88
2022-10-07T00:18:52.099Z,4.65
2022-10-07T00:20:56.790Z,4.95
2022-10-07T00:23:01.476Z,4.75
2022-10-07T00:25:06.440Z,4.97
2022-10-07T00:27:11.200Z,5.97
2022-10-07T00:29:15.939Z,5.47
2022-10-07T00:31:24.914Z,6.45
2022-10-07T00:33:30.010Z,5.57
2022-10-07T00:35:37.754Z,4.78
2022-10-07T00:37:44.293Z,4.75
2022-10-07T00:39:49.273Z,4.95
2022-10-07T00:41:55.513Z,4.95
2022-10-07T00:44:00.272Z,4.90
2022-10-07T00:46:10.782Z,5.05
2022-10-07T00:48:20.544Z,5.35
2022-10-07T00:50:30.714Z,5.00
2022-10-07T00:52:40.574Z,5.45
2022-10-07T00:54:46.165Z,5.07
2022-10-07T00:56:54.076Z,4.88
2022-10-07T00:59:01.699Z,4.55
2022-10-07T01:01:08.156Z,4.70
2022-10-07T01:03:12.956Z,5.30
2022-10-07T01:05:21.238Z,4.97
2022-10-07T01:07:26.066Z,5.25
2022-10-07T01:09:31.030Z,5.15
2022-10-07T01:11:49.054Z,5.10
2022-10-07T01:14:04.534Z,4.72
2022-10-07T01:16:17.457Z,4.40
2022-10-07T01:18:28.466Z,4.43
2022-10-07T01:20:41.140Z,4.85
2022-10-07T01:22:56.077Z,4.07
2022-10-07T01:25:18.793Z,4.38
2022-10-07T01:27:29.612Z,4.00
2022-10-07T01:29:41.216Z,4.00
2022-10-07T01:31:50.721Z,4.70
2022-10-07T01:33:57.418Z,4.30
2022-10-07T01:36:09.573Z,4.30
2022-10-07T01:38:17.886Z,4.00
2022-10-07T01:40:27.181Z,4.22
2022-10-07T01:42:35.237Z,4.00
2022-10-07T01:44:42.796Z,4.88
2022-10-07T01:46:49.614Z,4.95
2022-10-07T01:48:55.035Z,4.20
2022-10-07T01:51:00.514Z,3.95
2022-10-07T01:53:17.901Z,3.45
2022-10-07T01:55:38.329Z,3.30
2022-10-07T01:57:56.131Z,3.92
2022-10-07T02:00:12.834Z,3.80
2022-10-07T02:02:30.727Z,3.50
2022-10-07T02:04:59.315Z,4.10
2022-10-07T02:07:17.786Z,3.70
2022-10-07T02:09:29.346Z,3.88
2022-10-07T02:11:41.299Z,3.10
2022-10-07T02:14:00.427Z,3.80
2022-10-07T02:16:18.794Z,4.20
2022-10-07T02:18:23.680Z,3.60
2022-10-07T02:20:34.126Z,4.75
2022-10-07T02:22:41.728Z,3.80
2022-10-07T02:24:48.454Z,4.22
2022-10-07T02:26:56.767Z,3.70
2022-10-07T02:29:07.719Z,3.80
2022-10-07T02:31:18.215Z,3.60
2022-10-07T02:33:27.435Z,3.03
2022-10-07T02:35:37.681Z,4.03
2022-10-07T02:37:47.196Z,4.07
2022-10-07T02:39:52.244Z,3.15
2022-10-07T02:42:03.689Z,3.10
2022-10-07T02:44:21.795Z,3.97
2022-10-07T02:46:30.594Z,3.70
2022-10-07T02:48:42.238Z,4.63
2022-10-07T02:50:51.796Z,3.60
2022-10-07T02:52:58.943Z,3.30
2022-10-07T02:55:08.649Z,3.45
2022-10-07T02:57:16.407Z,3.50
2022-10-07T02:59:25.791Z,2.88
2022-10-07T03:01:35.381Z,3.47
2022-10-07T03:03:40.316Z,3.30
2022-10-07T03:05:45.199Z,3.13
2022-10-07T03:07:51.293Z,3.42
2022-10-07T03:09:56.437Z,3.10
2022-10-07T03:14:06.309Z,2.50
2022-10-07T03:16:13.728Z,2.78
2022-10-07T03:18:29.433Z,3.13
2022-10-07T03:20:43.060Z,2.95
2022-10-07T03:22:48.180Z,3.20
2022-10-07T03:24:55.533Z,3.42
2022-10-07T03:27:03.073Z,3.42
2022-10-07T03:29:08.525Z,3.60
2022-10-07T03:31:16.984Z,3.47
2022-10-07T03:33:26.791Z,3.70
2022-10-07T03:35:31.991Z,3.33
2022-10-07T03:37:37.220Z,3.65
2022-10-07T03:39:43.680Z,3.70
2022-10-07T03:41:50.183Z,4.10
2022-10-07T03:43:59.238Z,3.38
2022-10-07T03:46:05.369Z,3.35
2022-10-07T03:48:15.256Z,4.20
2022-10-07T03:50:20.054Z,3.75
2022-10-07T03:52:24.843Z,3.60
2022-10-07T03:54:31.291Z,3.75
2022-10-07T03:56:36.095Z,3.53
2022-10-07T03:58:41.173Z,4.03
2022-10-07T04:00:48.695Z,3.75
2022-10-07T04:02:53.978Z,3.75
2022-10-07T04:07:06.185Z,3.63
2022-10-07T04:09:11.371Z,3.45
2022-10-07T04:11:17.912Z,3.83
2022-10-07T04:13:23.208Z,4.03
2022-10-07T04:15:29.746Z,3.40
2022-10-07T04:17:35.717Z,3.53
2022-10-07T04:19:40.597Z,3.45
2022-10-07T04:21:47.951Z,3.70
2022-10-07T04:23:53.176Z,3.75
2022-10-07T04:25:58.177Z,3.53
2022-10-07T04:28:04.994Z,3.30
2022-10-07T04:30:11.373Z,3.75
2022-10-07T04:32:18.153Z,3.40
2022-10-07T04:34:23.055Z,3.67
2022-10-07T04:36:28.610Z,3.60
2022-10-07T04:38:46.699Z,3.67
2022-10-07T04:40:53.046Z,4.18
2022-10-07T04:43:12.615Z,3.67
2022-10-07T04:45:18.154Z,3.45
2022-10-07T04:47:22.987Z,3.83
2022-10-07T04:49:27.943Z,4.15
2022-10-07T04:51:33.863Z,3.30
2022-10-07T04:53:40.032Z,3.63
2022-10-07T04:55:52.003Z,3.58
2022-10-07T04:57:58.849Z,3.58
2022-10-07T05:00:03.613Z,4.05
2022-10-07T05:02:08.722Z,3.55
2022-10-07T05:04:14.481Z,3.10
2022-10-07T05:06:19.268Z,3.55
2022-10-07T05:08:27.161Z,3.20
2022-10-07T05:10:33.688Z,3.15
2022-10-07T05:12:41.617Z,3.22
2022-10-07T05:14:46.809Z,3.20
2022-10-07T05:16:52.368Z,2.83
2022-10-07T05:19:00.117Z,2.83
2022-10-07T05:21:07.942Z,3.03
2022-10-07T05:23:17.464Z,2.80
2022-10-07T05:25:22.845Z,2.42
2022-10-07T05:27:28.029Z,2.38
2022-10-07T05:29:35.433Z,2.65
2022-10-07T05:31:40.350Z,2.92
2022-10-07T05:35:51.376Z,3.50
2022-10-07T05:37:56.645Z,4.63
2022-10-07T05:40:01.816Z,4.03
2022-10-07T05:42:07.493Z,4.00
2022-10-07T05:44:20.526Z,4.20
2022-10-07T05:46:30.553Z,4.53
2022-10-07T05:48:39.530Z,4.65
2022-10-07T05:50:50.162Z,4.22
2022-10-07T05:52:55.069Z,7.22
2022-10-07T05:55:00.741Z,6.75
2022-10-07T05:57:05.543Z,5.70
2022-10-07T05:59:12.002Z,5.00
2022-10-07T06:01:20.698Z,3.88
2022-10-07T06:03:29.253Z,3.97
2022-10-07T06:05:35.565Z,3.63
2022-10-07T06:07:40.570Z,3.45
2022-10-07T06:09:59.069Z,4.00
2022-10-07T06:12:16.548Z,4.32
2022-10-07T06:14:22.199Z,3.67
2022-10-07T06:16:27.863Z,3.80
2022-10-07T06:18:35.850Z,4.38
2022-10-07T06:20:40.720Z,3.35
2022-10-07T06:22:45.739Z,3.83
2022-10-07T06:24:56.588Z,4.13
2022-10-07T06:27:02.158Z,4.05
2022-10-07T06:29:08.365Z,3.80
2022-10-07T06:31:15.348Z,4.75
2022-10-07T06:33:22.302Z,3.30
2022-10-07T06:35:29.737Z,3.55
2022-10-07T06:37:35.702Z,4.07
2022-10-07T06:39:41.273Z,3.22
2022-10-07T06:41:47.329Z,3.53
2022-10-07T06:44:11.791Z,3.25
2022-10-07T06:46:23.104Z,2.90
2022-10-07T06:48:29.945Z,4.22
2022-10-07T06:50:37.492Z,3.35
2022-10-07T06:52:43.588Z,2.75
2022-10-07T06:54:48.990Z,3.05
2022-10-07T06:56:55.597Z,3.20
2022-10-07T06:59:01.995Z,3.08
2022-10-07T07:01:15.946Z,2.55
2022-10-07T07:03:20.892Z,3.28
2022-10-07T07:05:25.704Z,2.95
2022-10-07T07:07:33.061Z,3.03
2022-10-07T07:09:38.489Z,4.15
2022-10-07T07:11:45.404Z,3.85
2022-10-07T07:13:57.509Z,3.28
2022-10-07T07:16:03.710Z,2.67
2022-10-07T07:18:13.580Z,3.78
2022-10-07T07:20:18.565Z,2.80
2022-10-07T07:22:23.431Z,2.75
2022-10-07T07:26:36.556Z,3.35
2022-10-07T07:28:41.798Z,4.00
2022-10-07T07:30:48.912Z,3.70
2022-10-07T07:32:54.009Z,4.18
2022-10-07T07:35:00.830Z,4.07
2022-10-07T07:37:08.602Z,4.15
2022-10-07T07:39:20.949Z,4.55
2022-10-07T07:41:38.868Z,4.53
2022-10-07T07:43:43.702Z,4.22
2022-10-07T07:45:48.815Z,4.95
2022-10-07T07:47:53.690Z,4.55
2022-10-07T07:52:08.624Z,4.40
2022-10-07T07:54:19.089Z,4.80
2022-10-07T07:56:26.237Z,4.72
2022-10-07T08:00:38.511Z,4.13
2022-10-07T08:02:45.455Z,5.65
2022-10-07T08:04:54.822Z,5.00
2022-10-07T08:07:00.896Z,5.20
2022-10-07T08:09:06.966Z,4.68
2022-10-07T08:13:18.195Z,5.95
2022-10-07T08:15:25.619Z,4.53
2022-10-07T08:17:31.124Z,5.07
2022-10-07T08:19:35.926Z,5.20
2022-10-07T08:21:42.460Z,4.97
2022-10-07T08:23:56.461Z,4.88
2022-10-07T08:26:04.150Z,5.82
2022-10-07T08:28:09.468Z,6.43
2022-10-07T08:30:15.128Z,5.40
2022-10-07T08:32:22.477Z,5.07
2022-10-07T08:34:27.274Z,4.95
2022-10-07T08:36:34.476Z,5.00
2022-10-07T08:38:41.562Z,5.38
2022-10-07T08:40:50.898Z,5.38
2022-10-07T08:42:55.928Z,6.00
2022-10-07T08:45:00.784Z,4.80
2022-10-07T08:47:14.271Z,5.07
2022-10-07T08:49:27.814Z,4.93
2022-10-07T08:51:39.359Z,6.25
2022-10-07T08:53:44.695Z,6.40
2022-10-07T08:55:54.999Z,6.35
2022-10-07T08:58:19.742Z,6.97
2022-10-07T09:00:39.929Z,7.68
2022-10-07T09:02:58.374Z,6.55
2022-10-07T09:05:15.515Z,6.65
2022-10-07T09:07:34.319Z,6.20
2022-10-07T09:09:43.161Z,5.80
2022-10-07T09:11:50.729Z,5.40
2022-10-07T09:14:00.310Z,5.45
2022-10-07T09:16:09.621Z,6.10
2022-10-07T09:18:20.728Z,6.53
2022-10-07T09:20:35.783Z,5.80
2022-10-07T09:22:42.812Z,6.80
2022-10-07T09:24:49.213Z,7.05
2022-10-07T09:26:56.175Z,6.10
2022-10-07T09:29:02.145Z,6.78
2022-10-07T09:31:07.173Z,6.57
2022-10-07T09:33:18.613Z,6.45
2022-10-07T09:35:26.300Z,7.05
2022-10-07T09:37:34.209Z,7.43
2022-10-07T09:39:39.125Z,6.78
2022-10-07T09:41:47.233Z,7.25
2022-10-07T09:44:01.926Z,6.25
2022-10-07T09:46:07.388Z,5.82
2022-10-07T09:48:23.665Z,5.13
2022-10-07T09:50:36.531Z,5.38
2022-10-07T09:52:58.167Z,5.38
2022-10-07T09:55:37.790Z,6.72
2022-10-07T09:57:43.696Z,6.38
2022-10-07T09:59:48.679Z,7.15
2022-10-07T10:01:55.685Z,6.72
2022-10-07T10:04:01.274Z,7.57
2022-10-07T10:06:09.016Z,6.75
2022-10-07T10:08:28.193Z,7.13
2022-10-07T10:10:35.406Z,6.55
2022-10-07T10:12:49.416Z,22.40
2022-10-07T10:14:55.820Z,7.90
2022-10-07T10:17:00.687Z,12.23
2022-10-07T10:19:07.921Z,9.00
2022-10-07T10:21:30.278Z,9.15
2022-10-07T10:23:39.998Z,9.63
2022-10-07T10:26:06.041Z,8.40
2022-10-07T10:28:17.929Z,6.95
2022-10-07T10:30:25.276Z,7.10
2022-10-07T10:32:54.029Z,6.18
2022-10-07T10:35:05.657Z,8.05
2022-10-07T10:37:18.531Z,7.03
2022-10-07T10:39:39.257Z,6.18
2022-10-07T10:41:51.171Z,6.95
2022-10-07T10:44:20.736Z,6.82
2022-10-07T10:46:51.073Z,7.05
2022-10-07T10:49:02.402Z,7.13
2022-10-07T10:51:21.452Z,6.82
2022-10-07T10:53:37.844Z,6.50
2022-10-07T10:56:06.438Z,6.70
2022-10-07T10:58:24.140Z,5.70
2022-10-07T11:00:35.817Z,5.95
2022-10-07T11:03:00.836Z,5.03
2022-10-07T11:05:08.830Z,6.55
2022-10-07T11:07:24.460Z,7.40
2022-10-07T11:11:40.792Z,7.88
2022-10-07T11:13:49.177Z,9.43
2022-10-07T11:15:58.703Z,9.23
2022-10-07T11:18:08.325Z,8.90
2022-10-07T11:20:21.688Z,6.55
2022-10-07T11:22:40.405Z,6.05
2022-10-07T11:24:50.841Z,6.78
2022-10-07T11:27:02.557Z,5.93
2022-10-07T11:29:21.271Z,5.85
2022-10-07T11:31:33.530Z,5.90
2022-10-07T11:33:45.176Z,5.43
2022-10-07T11:35:55.334Z,5.65
2022-10-07T11:38:06.139Z,5.07
2022-10-07T11:40:12.679Z,5.78
2022-10-07T11:42:25.685Z,5.70
2022-10-07T11:44:34.687Z,4.88
2022-10-07T11:46:44.947Z,4.78
2022-10-07T11:48:54.626Z,5.05
2022-10-07T11:51:04.897Z,4.65
2022-10-07T11:53:13.730Z,5.03
2022-10-07T11:55:25.186Z,5.55
2022-10-07T11:57:34.831Z,4.53
2022-10-07T11:59:46.344Z,5.07
2022-10-07T12:01:56.969Z,4.82
2022-10-07T12:04:38.980Z,4.25
2022-10-07T12:07:18.730Z,4.95
2022-10-07T12:09:53.542Z,4.20
2022-10-07T12:11:59.607Z,4.57
2022-10-07T12:14:42.922Z,7.68
2022-10-07T12:16:57.660Z,6.13
2022-10-07T12:19:24.047Z,5.15
2022-10-07T12:21:29.136Z,4.10
2022-10-07T12:23:51.610Z,4.40
2022-10-07T12:26:04.909Z,4.55
2022-10-07T12:28:19.002Z,4.55
2022-10-07T12:30:44.658Z,27.42
2022-10-07T12:33:01.236Z,9.80
2022-10-07T12:35:54.895Z,4.95
2022-10-07T12:38:05.341Z,4.25
2022-10-07T12:40:18.120Z,4.40
2022-10-07T12:42:23.182Z,4.75
2022-10-07T12:44:34.215Z,4.65
2022-10-07T12:46:49.425Z,5.00
2022-10-07T12:49:01.657Z,4.00
2022-10-07T12:51:09.706Z,4.38
2022-10-07T12:53:15.311Z,4.50
2022-10-07T12:55:29.182Z,4.07
2022-10-07T12:57:36.893Z,4.30
2022-10-07T12:59:47.555Z,4.30
2022-10-07T13:02:28.877Z,4.20
2022-10-07T13:04:53.761Z,3.63
2022-10-07T13:07:31.314Z,3.72
2022-10-07T13:10:01.607Z,3.97
2022-10-07T13:12:18.129Z,3.70
2022-10-07T13:14:29.395Z,4.47
2022-10-07T13:16:39.831Z,3.47
2022-10-07T13:18:55.283Z,3.78
2022-10-07T13:21:12.680Z,4.03
2022-10-07T13:23:24.557Z,3.95
2022-10-07T13:25:32.858Z,4.13
2022-10-07T13:27:38.715Z,4.07
2022-10-07T13:29:44.174Z,4.30
2022-10-07T13:32:05.591Z,4.15
2022-10-07T13:34:22.786Z,4.40
2022-10-07T13:36:29.829Z,3.95
2022-10-07T13:38:34.932Z,3.88
2022-10-07T13:42:45.095Z,3.33
2022-10-07T13:44:50.050Z,4.15
2022-10-07T13:47:00.183Z,3.33
2022-10-07T13:49:06.137Z,4.72
2022-10-07T13:51:27.480Z,3.97
2022-10-07T13:53:35.042Z,4.50
2022-10-07T13:55:39.845Z,4.10
2022-10-07T13:57:44.606Z,3.83
2022-10-07T13:59:51.772Z,3.80
2022-10-07T14:01:59.206Z,3.97
2022-10-07T14:04:10.791Z,4.22
2022-10-07T14:06:40.629Z,4.20
2022-10-07T14:08:53.488Z,3.90
2022-10-07T14:11:03.559Z,4.38
2022-10-07T14:13:09.827Z,4.05
2022-10-07T14:15:18.421Z,3.20
2022-10-07T14:17:31.553Z,3.92
2022-10-07T14:19:36.427Z,3.28
2022-10-07T14:21:45.794Z,4.05
2022-10-07T14:23:50.592Z,4.05
2022-10-07T14:25:57.860Z,3.67
2022-10-07T14:28:19.363Z,3.70
2022-10-07T14:30:29.564Z,3.38
2022-10-07T14:32:46.994Z,3.33
2022-10-07T14:35:04.447Z,3.90
2022-10-07T14:37:13.746Z,3.50
2022-10-07T14:39:33.477Z,3.17
2022-10-07T14:41:38.544Z,3.55
2022-10-07T14:47:54.432Z,3.67
2022-10-07T14:50:01.290Z,3.15
2022-10-07T14:52:07.114Z,3.22
2022-10-07T14:54:15.300Z,3.13
2022-10-07T14:56:26.949Z,3.08
2022-10-07T14:58:31.704Z,3.30
2022-10-07T15:00:39.605Z,3.40
2022-10-07T15:02:45.079Z,2.67
2022-10-07T15:04:51.226Z,3.38
2022-10-07T15:06:56.072Z,3.88
2022-10-07T15:09:00.840Z,3.08
2022-10-07T15:11:08.616Z,3.47
2022-10-07T15:13:14.365Z,3.33
2022-10-07T15:15:19.210Z,3.22
2022-10-07T15:17:23.987Z,3.10
2022-10-07T15:19:28.996Z,3.42
2022-10-07T15:21:33.977Z,3.70
2022-10-07T15:23:38.710Z,2.65
2022-10-07T15:25:44.000Z,3.05
2022-10-07T15:27:51.812Z,3.15
2022-10-07T15:29:56.568Z,3.47
2022-10-07T15:32:01.306Z,3.13
2022-10-07T15:34:07.127Z,3.13
2022-10-07T15:36:13.237Z,3.30
2022-10-07T15:38:17.998Z,4.03
2022-10-07T15:40:22.933Z,2.80
2022-10-07T15:42:28.206Z,3.78
2022-10-07T15:46:40.179Z,4.85
2022-10-07T15:48:44.954Z,4.43
2022-10-07T15:50:50.705Z,4.88
2022-10-07T15:52:55.425Z,4.80
2022-10-07T15:55:05.092Z,4.60
2022-10-07T15:57:12.066Z,5.22
2022-10-07T15:59:17.063Z,4.90
2022-10-07T16:01:26.547Z,4.68
2022-10-07T16:03:35.728Z,4.45
2022-10-07T16:05:40.477Z,4.53
2022-10-07T16:07:45.240Z,3.90
2022-10-07T16:09:49.971Z,5.53
2022-10-07T16:11:54.923Z,4.63
2022-10-07T16:14:02.094Z,4.07
2022-10-07T16:16:09.560Z,4.05
2022-10-07T16:18:16.931Z,4.70
2022-10-07T16:20:21.665Z,5.00
2022-10-07T16:22:26.468Z,5.07
2022-10-07T16:24:35.156Z,4.85
2022-10-07T16:26:40.402Z,5.30
2022-10-07T16:28:59.176Z,5.43
2022-10-07T16:31:04.040Z,6.03
2022-10-07T16:33:08.843Z,5.72
2022-10-07T16:35:16.289Z,6.13
2022-10-07T16:37:21.010Z,5.78
2022-10-07T16:39:25.936Z,5.47
2022-10-07T16:41:30.859Z,5.72
2022-10-07T16:43:35.950Z,5.65
2022-10-07T16:47:46.764Z,5.78
2022-10-07T16:49:52.216Z,5.50
2022-10-07T16:52:00.537Z,5.38
2022-10-07T16:54:07.502Z,5.18
2022-10-07T16:56:12.212Z,4.60
2022-10-07T16:58:16.992Z,4.78
2022-10-07T17:00:22.184Z,5.40
2022-10-07T17:02:30.207Z,4.40
2022-10-07T17:04:34.974Z,5.13
2022-10-07T17:06:40.122Z,5.00
2022-10-07T17:08:48.913Z,5.53
2022-10-07T17:10:53.989Z,5.68
2022-10-07T17:12:58.768Z,6.10
2022-10-07T17:15:03.577Z,6.60
2022-10-07T17:17:08.505Z,7.20
2022-10-07T17:19:15.647Z,7.43
2022-10-07T17:21:20.814Z,7.10
2022-10-07T17:25:34.373Z,7.60
2022-10-07T17:27:39.141Z,6.95
2022-10-07T17:29:43.872Z,7.13
2022-10-07T17:31:50.842Z,7.38
2022-10-07T17:33:55.773Z,6.93
2022-10-07T17:36:06.876Z,6.55
2022-10-07T17:38:11.744Z,7.38
2022-10-07T17:40:16.698Z,6.95
2022-10-07T17:42:24.157Z,8.52
2022-10-07T17:44:30.069Z,7.32
2022-10-07T17:46:36.646Z,7.20
2022-10-07T17:48:45.062Z,8.85
2022-10-07T17:50:49.825Z,9.25
2022-10-07T17:52:54.600Z,9.75
2022-10-07T17:54:59.540Z,10.20
2022-10-07T17:57:04.474Z,10.13
2022-10-07T17:59:12.378Z,11.57
2022-10-07T18:01:19.608Z,13.95
2022-10-07T18:03:24.689Z,15.07
2022-10-07T18:05:29.444Z,14.40
2022-10-07T18:07:35.155Z,15.32
2022-10-07T18:09:40.058Z,16.73
2022-10-07T18:11:57.264Z,16.98
2022-10-07T18:14:14.424Z,16.90
2022-10-07T18:16:23.267Z,15.85
2022-10-07T18:18:30.056Z,15.82
2022-10-07T18:20:34.772Z,16.05
2022-10-07T18:22:39.563Z,17.15
2022-10-07T18:24:46.107Z,15.40
2022-10-07T18:26:50.824Z,17.10
2022-10-07T18:28:57.570Z,16.13
2022-10-07T18:31:02.774Z,16.15
2022-10-07T18:33:10.280Z,16.80
2022-10-07T18:35:15.092Z,17.48
2022-10-07T18:37:19.797Z,18.35
2022-10-07T18:39:24.676Z,22.70
2022-10-07T18:41:29.692Z,21.80
2022-10-07T18:43:35.751Z,20.42
2022-10-07T18:45:40.604Z,21.85
2022-10-07T18:47:45.569Z,21.63
2022-10-07T18:49:55.010Z,23.48
2022-10-07T18:51:59.734Z,30.65
2022-10-07T18:54:04.432Z,28.30
2022-10-07T18:56:11.238Z,28.95
2022-10-07T18:58:16.252Z,28.52
2022-10-07T19:00:21.223Z,29.75
2022-10-07T19:02:25.954Z,25.40
2022-10-07T19:04:32.667Z,23.23
2022-10-07T19:06:43.917Z,22.75
2022-10-07T19:08:49.145Z,20.33
2022-10-07T19:13:10.962Z,19.90
2022-10-07T19:15:15.690Z,19.63
2022-10-07T19:17:20.474Z,19.88
2022-10-07T19:19:26.784Z,19.65
2022-10-07T19:21:31.907Z,17.73
2022-10-07T19:25:47.710Z,13.15
2022-10-07T19:27:52.442Z,12.05
2022-10-07T19:29:58.461Z,10.93
2022-10-07T19:32:07.809Z,11.30
2022-10-07T19:34:14.904Z,10.50
2022-10-07T19:36:21.892Z,10.63
2022-10-07T19:38:27.208Z,11.13
2022-10-07T19:40:40.115Z,10.80
2022-10-07T19:42:44.850Z,10.75
2022-10-07T19:44:49.659Z,8.90
2022-10-07T19:46:54.754Z,10.13
2022-10-07T19:49:01.206Z,9.88
2022-10-07T19:51:08.707Z,9.65
2022-10-07T19:53:14.861Z,9.50
2022-10-07T19:55:19.858Z,10.52
2022-10-07T19:57:27.377Z,11.55
2022-10-07T19:59:32.178Z,10.52
2022-10-07T20:01:39.506Z,10.27
2022-10-07T20:03:44.903Z,10.32
2022-10-07T20:05:49.597Z,10.02
2022-10-07T20:07:54.670Z,9.05
2022-10-07T20:10:01.091Z,9.15
2022-10-07T20:12:06.556Z,10.20
2022-10-07T20:14:16.319Z,10.30
2022-10-07T20:16:23.744Z,10.02
2022-10-07T20:18:28.505Z,9.98
2022-10-07T20:20:33.501Z,10.07
2022-10-07T20:22:38.355Z,9.95
2022-10-07T20:24:43.121Z,11.18
2022-10-07T20:26:47.941Z,10.88
2022-10-07T20:28:54.244Z,10.80
2022-10-07T20:31:05.145Z,9.50
2022-10-07T20:33:10.008Z,10.38
2022-10-07T20:35:14.746Z,10.48
2022-10-07T20:37:19.477Z,10.40
2022-10-07T20:39:36.792Z,10.75
2022-10-07T20:41:54.042Z,10.45
2022-10-07T20:43:59.161Z,10.30
2022-10-07T20:48:10.994Z,9.52
2022-10-07T20:50:16.398Z,10.25
2022-10-07T20:52:22.956Z,12.23
2022-10-07T20:54:29.013Z,11.50
2022-10-07T20:56:34.732Z,11.35
2022-10-07T20:58:39.542Z,11.50
2022-10-07T21:00:44.266Z,11.27
2022-10-07T21:02:51.957Z,12.23
2022-10-07T21:04:59.134Z,10.90
2022-10-07T21:07:03.963Z,11.70
2022-10-07T21:09:09.813Z,12.55
2022-10-07T21:11:14.586Z,11.80
2022-10-07T21:13:19.319Z,13.23
2022-10-07T21:15:24.055Z,12.05
2022-10-07T21:17:28.909Z,11.02
2022-10-07T21:19:36.423Z,12.10
2022-10-07T21:21:41.215Z,11.88
2022-10-07T21:23:46.002Z,12.68
2022-10-07T21:25:51.826Z,11.80
2022-10-07T21:27:56.626Z,10.57
2022-10-07T21:30:01.365Z,12.40
2022-10-07T21:32:06.458Z,13.00
2022-10-07T21:34:11.673Z,12.48
2022-10-07T21:36:21.008Z,12.05
2022-10-07T21:38:25.720Z,12.50
2022-10-07T21:40:32.210Z,14.50
2022-10-07T21:42:36.886Z,12.93
2022-10-07T21:44:41.592Z,13.18
2022-10-07T21:46:46.758Z,12.80
2022-10-07T21:48:52.200Z,12.80
2022-10-07T21:50:57.580Z,12.77
2022-10-07T21:53:04.989Z,13.10
2022-10-07T21:55:10.413Z,12.65
2022-10-07T21:57:15.274Z,13.93
2022-10-07T21:59:19.958Z,14.10
2022-10-07T22:01:26.447Z,12.13
2022-10-07T22:03:31.173Z,13.60
2022-10-07T22:05:36.285Z,11.80
2022-10-07T22:07:53.464Z,11.45
2022-10-07T22:10:01.338Z,10.60
2022-10-07T22:12:06.049Z,11.68
2022-10-07T22:14:12.756Z,12.02
2022-10-07T22:16:20.728Z,11.95
2022-10-07T22:18:25.602Z,11.98
2022-10-07T22:20:30.334Z,11.82
2022-10-07T22:22:35.252Z,12.85
2022-10-07T22:24:40.050Z,12.77
2022-10-07T22:26:51.400Z,11.52
2022-10-07T22:28:57.243Z,14.07
2022-10-07T22:31:02.048Z,16.33
2022-10-07T22:33:06.879Z,13.85
2022-10-07T22:35:30.756Z,13.82
2022-10-07T22:37:35.443Z,12.02
2022-10-07T22:39:41.211Z,12.60
2022-10-07T22:41:48.694Z,11.88
2022-10-07T22:43:53.823Z,12.10
2022-10-07T22:45:59.702Z,12.40
2022-10-07T22:48:04.561Z,12.90
2022-10-07T22:50:10.630Z,13.20
2022-10-07T22:52:15.381Z,13.68
2022-10-07T22:54:20.075Z,12.82
2022-10-07T22:56:26.102Z,12.82
2022-10-07T22:58:33.397Z,11.90
2022-10-07T23:00:38.345Z,12.30
2022-10-07T23:02:44.661Z,11.73
2022-10-07T23:04:49.747Z,11.68
2022-10-07T23:06:54.444Z,10.68
2022-10-07T23:08:59.423Z,11.77
2022-10-07T23:11:05.715Z,12.57
2022-10-07T23:13:10.448Z,12.02
2022-10-07T23:15:19.724Z,12.00
2022-10-07T23:17:24.838Z,12.23
2022-10-07T23:21:37.538Z,13.63
2022-10-07T23:23:44.122Z,13.98
2022-10-07T23:25:48.980Z,13.07
2022-10-07T23:27:54.234Z,12.88
2022-10-07T23:32:06.054Z,13.50
2022-10-07T23:34:13.940Z,13.63
2022-10-07T23:36:20.177Z,13.38
2022-10-07T23:38:26.282Z,13.30
2022-10-07T23:40:30.958Z,12.38
2022-10-07T23:42:35.778Z,12.93
2022-10-07T23:44:40.597Z,14.00
2022-10-07T23:46:45.463Z,14.48
2022-10-07T23:48:53.210Z,14.65
2022-10-07T23:50:58.100Z,15.63
2022-10-07T23:53:02.949Z,15.40
2022-10-07T23:55:10.344Z,15.38
2022-10-07T23:57:15.094Z,15.88
2022-10-07T23:59:20.144Z,15.60
